createdAt,value
2019-04-26T00:01:31.259Z,2.27
2019-04-26T00:04:33.792Z,1.95
2019-04-26T00:07:35.761Z,3.52
2019-04-26T00:10:37.875Z,2.27
2019-04-26T00:13:40.079Z,2.20
2019-04-26T00:16:42.663Z,1.10
2019-04-26T00:19:44.672Z,3.15
2019-04-26T00:22:47.230Z,1.65
2019-04-26T00:25:49.264Z,5.25
2019-04-26T00:28:51.255Z,8.38
2019-04-26T00:31:53.287Z,4.40
2019-04-26T00:34:55.300Z,2.33
2019-04-26T00:37:57.505Z,3.60
2019-04-26T00:40:59.779Z,4.20
2019-04-26T00:44:02.470Z,2.37
2019-04-26T00:47:05.263Z,4.00
2019-04-26T00:50:07.586Z,2.77
2019-04-26T00:53:10.021Z,3.25
2019-04-26T00:56:14.519Z,2.10
2019-04-26T00:59:16.975Z,5.08
2019-04-26T01:02:19.148Z,2.33
2019-04-26T01:05:21.145Z,7.65
2019-04-26T01:08:23.481Z,2.02
2019-04-26T01:11:26.009Z,1.82
2019-04-26T01:14:28.228Z,2.12
2019-04-26T01:17:30.232Z,3.75
2019-04-26T01:20:34.520Z,4.20
2019-04-26T01:23:39.729Z,4.47
2019-04-26T01:26:42.427Z,3.30
2019-04-26T01:29:47.972Z,3.50
2019-04-26T01:32:50.157Z,6.47
2019-04-26T01:35:58.135Z,5.85
2019-04-26T01:39:04.806Z,10.23
2019-04-26T01:42:07.118Z,8.73
2019-04-26T01:45:11.394Z,6.20
2019-04-26T01:48:32.588Z,2.87
2019-04-26T01:51:41.110Z,2.33
2019-04-26T01:54:44.901Z,2.37
2019-04-26T01:57:46.901Z,4.72
2019-04-26T02:00:48.929Z,3.17
2019-04-26T02:03:50.980Z,3.20
2019-04-26T02:06:53.101Z,3.40
2019-04-26T02:09:55.229Z,3.42
2019-04-26T02:12:58.251Z,3.85
2019-04-26T02:16:00.267Z,4.97
2019-04-26T02:19:02.443Z,4.75
2019-04-26T02:22:05.123Z,8.08
2019-04-26T02:25:07.343Z,5.10
2019-04-26T02:28:09.360Z,5.95
2019-04-26T02:31:11.357Z,4.72
2019-04-26T02:34:14.685Z,5.60
2019-04-26T02:37:16.681Z,5.20
2019-04-26T02:40:18.701Z,5.10
2019-04-26T02:43:23.385Z,5.90
2019-04-26T02:46:31.294Z,3.87
2019-04-26T02:49:37.061Z,6.40
2019-04-26T02:52:51.436Z,3.42
2019-04-26T02:56:12.911Z,3.25
2019-04-26T02:59:30.180Z,4.72
2019-04-26T03:02:35.051Z,5.37
2019-04-26T03:05:40.546Z,4.40
2019-04-26T03:08:43.048Z,5.00
2019-04-26T03:11:49.191Z,4.30
2019-04-26T03:15:11.927Z,4.42
2019-04-26T03:18:02.345Z,7.47
2019-04-26T03:21:12.344Z,6.35
2019-04-26T03:24:23.886Z,3.80
2019-04-26T03:27:37.309Z,3.30
2019-04-26T03:30:52.388Z,5.65
2019-04-26T03:34:18.270Z,5.87
2019-04-26T03:37:42.641Z,4.12
2019-04-26T03:41:14.674Z,6.30
2019-04-26T03:44:27.364Z,3.72
2019-04-26T03:47:34.212Z,4.15
2019-04-26T03:50:45.336Z,3.60
2019-04-26T03:54:00.438Z,4.35
2019-04-26T03:57:13.348Z,4.55
2019-04-26T04:00:16.763Z,4.22
2019-04-26T04:03:27.021Z,6.37
2019-04-26T04:06:48.801Z,4.30
2019-04-26T04:09:40.983Z,4.60
2019-04-26T04:13:12.849Z,5.80
2019-04-26T04:16:43.539Z,6.95
2019-04-26T04:20:38.514Z,8.60
2019-04-26T04:24:06.832Z,5.50
2019-04-26T04:27:17.188Z,5.87
2019-04-26T04:30:53.896Z,4.53
2019-04-26T04:34:31.189Z,5.87
2019-04-26T04:37:56.545Z,4.60
2019-04-26T04:41:01.446Z,5.53
2019-04-26T04:44:22.994Z,6.60
2019-04-26T04:47:31.080Z,6.00
2019-04-26T04:50:42.548Z,8.33
2019-04-26T04:53:52.792Z,8.70
2019-04-26T04:57:50.183Z,7.42
2019-04-26T05:01:26.452Z,4.97
2019-04-26T05:05:04.269Z,3.62
2019-04-26T05:08:26.883Z,5.05
2019-04-26T05:11:53.898Z,6.20
2019-04-26T05:15:15.473Z,9.43
2019-04-26T05:18:48.492Z,7.28
2019-04-26T05:22:18.051Z,7.33
2019-04-26T05:26:03.857Z,8.00
2019-04-26T05:29:25.192Z,6.65
2019-04-26T05:32:47.128Z,7.67
2019-04-26T05:36:33.549Z,9.30
2019-04-26T05:40:03.912Z,7.25
2019-04-26T05:43:24.049Z,4.20
2019-04-26T05:47:12.111Z,7.72
2019-04-26T05:50:43.808Z,4.87
2019-04-26T05:54:19.344Z,4.40
2019-04-26T05:57:56.500Z,6.10
2019-04-26T06:05:01.498Z,5.20
2019-04-26T06:08:12.807Z,5.67
2019-04-26T06:11:23.886Z,7.72
2019-04-26T06:14:47.951Z,5.83
2019-04-26T06:18:02.626Z,6.10
2019-04-26T06:21:23.104Z,5.47
2019-04-26T06:25:06.574Z,12.10
2019-04-26T06:28:46.216Z,6.78
2019-04-26T06:32:36.574Z,6.25
2019-04-26T06:35:50.036Z,7.40
2019-04-26T06:39:21.184Z,7.85
2019-04-26T06:43:06.435Z,6.78
2019-04-26T06:46:57.627Z,8.03
2019-04-26T06:50:34.712Z,9.13
2019-04-26T06:54:30.513Z,7.28
2019-04-26T06:57:44.739Z,9.60
2019-04-26T07:01:21.611Z,7.25
2019-04-26T07:04:51.119Z,6.95
2019-04-26T07:08:19.502Z,8.45
2019-04-26T07:12:00.872Z,6.75
2019-04-26T07:16:17.745Z,7.12
2019-04-26T07:19:39.684Z,6.25
2019-04-26T07:23:24.967Z,7.83
2019-04-26T07:27:09.237Z,6.97
2019-04-26T07:30:47.101Z,7.85
2019-04-26T07:34:30.452Z,7.53
2019-04-26T07:38:09.059Z,7.42
2019-04-26T07:41:45.268Z,7.70
2019-04-26T07:45:15.271Z,8.25
2019-04-26T07:49:14.447Z,8.10
2019-04-26T07:53:25.504Z,8.60
2019-04-26T07:57:12.876Z,7.25
2019-04-26T08:04:24.504Z,8.78
2019-04-26T08:07:50.948Z,10.23
2019-04-26T08:15:09.031Z,5.80
2019-04-26T08:18:50.293Z,7.37
2019-04-26T08:22:11.533Z,7.80
2019-04-26T08:25:06.846Z,6.58
2019-04-26T08:28:14.433Z,5.50
2019-04-26T08:31:23.138Z,5.30
2019-04-26T08:34:33.669Z,5.30
2019-04-26T08:37:36.609Z,5.85
2019-04-26T08:40:40.543Z,3.70
2019-04-26T08:43:44.488Z,5.87
2019-04-26T08:46:47.527Z,6.08
2019-04-26T08:49:50.415Z,4.10
2019-04-26T08:52:54.681Z,10.50
2019-04-26T08:55:59.881Z,5.40
2019-04-26T08:59:11.868Z,4.83
2019-04-26T09:02:18.561Z,5.05
2019-04-26T09:05:25.278Z,5.70
2019-04-26T09:08:32.664Z,6.75
2019-04-26T09:11:36.467Z,5.03
2019-04-26T09:14:42.575Z,7.65
2019-04-26T09:17:44.582Z,4.33
2019-04-26T09:20:46.600Z,6.28
2019-04-26T09:23:51.016Z,7.67
2019-04-26T09:26:52.407Z,7.25
2019-04-26T09:29:54.383Z,4.95
2019-04-26T09:32:58.284Z,4.50
2019-04-26T09:36:00.543Z,7.92
2019-04-26T09:39:03.864Z,11.78
2019-04-26T09:42:09.677Z,9.05
2019-04-26T09:45:11.595Z,5.17
2019-04-26T09:48:13.711Z,6.97
2019-04-26T09:51:20.050Z,5.08
2019-04-26T09:54:22.144Z,5.08
2019-04-26T09:57:24.301Z,7.05
2019-04-26T10:00:26.393Z,7.33
2019-04-26T10:03:34.328Z,6.37
2019-04-26T10:06:38.513Z,7.00
2019-04-26T10:09:40.643Z,7.10
2019-04-26T10:12:42.621Z,9.48
2019-04-26T10:15:50.123Z,9.90
2019-04-26T10:18:58.281Z,8.53
2019-04-26T10:25:02.635Z,9.90
2019-04-26T10:28:04.012Z,5.97
2019-04-26T10:31:06.180Z,7.35
2019-04-26T10:34:11.943Z,7.05
2019-04-26T10:37:12.110Z,5.90
2019-04-26T10:40:14.287Z,7.35
2019-04-26T10:43:16.387Z,10.00
2019-04-26T10:46:19.090Z,11.70
2019-04-26T10:49:45.014Z,8.10
2019-04-26T10:52:53.403Z,13.57
2019-04-26T10:55:51.499Z,9.95
2019-04-26T10:58:53.660Z,9.93
2019-04-26T11:01:55.688Z,10.93
2019-04-26T11:04:57.639Z,11.85
2019-04-26T11:07:59.643Z,9.65
2019-04-26T11:11:02.061Z,8.58
2019-04-26T11:14:04.175Z,11.20
2019-04-26T11:17:06.439Z,12.45
2019-04-26T11:20:10.636Z,9.25
2019-04-26T11:23:12.999Z,9.80
2019-04-26T11:26:16.637Z,9.28
2019-04-26T11:29:18.914Z,9.35
2019-04-26T11:32:20.919Z,8.55
2019-04-26T11:35:23.180Z,6.92
2019-04-26T11:40:14.063Z,10.28
2019-04-26T11:41:29.222Z,10.58
2019-04-26T11:44:31.213Z,5.80
2019-04-26T11:47:33.342Z,6.60
2019-04-26T11:54:47.380Z,8.10
2019-04-26T11:57:50.678Z,4.97
2019-04-26T12:00:53.048Z,5.55
2019-04-26T12:03:59.413Z,6.75
2019-04-26T12:07:19.396Z,7.65
2019-04-26T12:10:22.006Z,9.98
2019-04-26T12:13:25.036Z,11.05
2019-04-26T12:16:27.348Z,6.85
2019-04-26T12:19:30.087Z,6.28
2019-04-26T12:22:33.280Z,4.05
2019-04-26T12:25:38.718Z,8.85
2019-04-26T12:28:40.028Z,8.35
2019-04-26T12:31:43.177Z,6.25
2019-04-26T12:34:46.497Z,4.58
2019-04-26T12:37:50.641Z,11.53
2019-04-26T12:40:52.545Z,8.38
2019-04-26T12:43:58.894Z,3.75
2019-04-26T12:46:59.292Z,5.62
2019-04-26T12:50:02.832Z,6.33
2019-04-26T12:53:04.872Z,5.87
2019-04-26T12:56:06.961Z,8.30
2019-04-26T12:59:17.803Z,7.35
2019-04-26T13:02:43.291Z,7.60
2019-04-26T13:10:02.595Z,8.08
2019-04-26T13:13:05.493Z,4.83
2019-04-26T13:16:11.759Z,5.65
2019-04-26T13:19:19.982Z,6.95
2019-04-26T13:22:24.070Z,7.25
2019-04-26T13:25:40.168Z,5.45
2019-04-26T13:28:46.437Z,9.45
2019-04-26T13:32:04.760Z,7.75
2019-04-26T13:35:13.030Z,5.53
2019-04-26T13:38:15.757Z,9.43
2019-04-26T13:41:18.785Z,9.45
2019-04-26T13:44:23.959Z,6.00
2019-04-26T13:48:00.317Z,5.40
2019-04-26T13:51:05.869Z,6.50
2019-04-26T13:54:55.049Z,5.53
2019-04-26T14:02:51.887Z,9.43
2019-04-26T14:13:16.747Z,6.62
2019-04-26T14:16:22.816Z,6.95
2019-04-26T14:19:28.509Z,6.53
2019-04-26T14:22:36.932Z,7.40
2019-04-26T14:25:38.110Z,6.33
2019-04-26T14:28:42.271Z,6.20
2019-04-26T14:31:47.257Z,5.37
2019-04-26T14:34:50.351Z,6.50
2019-04-26T14:37:54.202Z,7.90
2019-04-26T14:41:03.871Z,7.72
2019-04-26T14:44:00.333Z,4.60
2019-04-26T14:47:13.217Z,8.20
2019-04-26T14:50:13.845Z,4.92
2019-04-26T14:53:11.623Z,8.10
2019-04-26T14:56:13.949Z,4.58
2019-04-26T14:59:16.120Z,5.00
2019-04-26T15:02:18.654Z,5.25
2019-04-26T15:05:22.216Z,6.37
2019-04-26T15:08:24.701Z,4.42
2019-04-26T15:11:27.863Z,3.92
2019-04-26T15:14:30.140Z,5.47
2019-04-26T15:17:32.330Z,5.47
2019-04-26T15:20:34.881Z,5.25
2019-04-26T15:23:44.242Z,7.97
2019-04-26T15:26:48.438Z,9.00
2019-04-26T15:29:57.243Z,5.78
2019-04-26T15:33:03.005Z,8.28
2019-04-26T15:36:11.216Z,6.55
2019-04-26T15:39:19.843Z,6.87
2019-04-26T15:42:18.638Z,6.58
2019-04-26T15:45:21.964Z,5.67
2019-04-26T15:48:24.114Z,4.70
2019-04-26T16:00:23.809Z,4.65
2019-04-26T16:03:26.584Z,7.92
2019-04-26T16:06:45.064Z,10.40
2019-04-26T16:09:49.253Z,5.45
2019-04-26T16:12:52.227Z,7.83
2019-04-26T16:15:55.271Z,7.75
2019-04-26T16:18:57.604Z,6.25
2019-04-26T16:22:00.016Z,9.35
2019-04-26T16:25:05.281Z,6.87
2019-04-26T16:28:09.346Z,10.53
2019-04-26T16:31:13.800Z,7.42
2019-04-26T16:34:17.280Z,6.62
2019-04-26T16:37:21.831Z,7.70
2019-04-26T16:40:26.016Z,5.97
2019-04-26T16:43:39.491Z,6.22
2019-04-26T16:46:34.158Z,6.12
2019-04-26T16:52:43.546Z,6.75
2019-04-26T16:55:52.270Z,7.53
2019-04-26T16:58:50.271Z,7.85
2019-04-26T17:00:46.639Z,10.08
2019-04-26T17:01:53.648Z,14.15
2019-04-26T17:04:56.259Z,9.33
2019-04-26T17:07:58.956Z,6.00
2019-04-26T17:11:03.499Z,7.12
2019-04-26T17:14:10.315Z,10.82
2019-04-26T17:17:13.976Z,5.37
2019-04-26T17:20:15.800Z,6.80
2019-04-26T17:23:17.837Z,5.83
2019-04-26T17:26:19.884Z,6.28
2019-04-26T17:29:22.182Z,9.30
2019-04-26T17:32:24.353Z,7.75
2019-04-26T17:35:26.504Z,5.50
2019-04-26T17:38:28.648Z,8.40
2019-04-26T17:41:31.083Z,8.50
2019-04-26T17:44:36.343Z,7.10
2019-04-26T17:47:41.884Z,6.35
2019-04-26T17:50:49.218Z,7.42
2019-04-26T17:55:07.663Z,8.10
2019-04-26T18:02:00.731Z,4.00
2019-04-26T18:05:03.823Z,5.47
2019-04-26T18:08:51.913Z,6.58
2019-04-26T18:11:45.071Z,5.50
2019-04-26T18:14:48.210Z,4.67
2019-04-26T18:25:29.317Z,4.97
2019-04-26T18:28:31.723Z,8.13
2019-04-26T18:31:33.778Z,6.03
2019-04-26T18:34:40.409Z,6.00
2019-04-26T18:37:42.583Z,4.87
2019-04-26T18:41:00.159Z,6.83
2019-04-26T18:43:48.668Z,5.75
2019-04-26T18:46:50.853Z,7.25
2019-04-26T18:49:58.301Z,5.17
2019-04-26T18:52:59.823Z,6.22
2019-04-26T18:56:03.381Z,5.75
2019-04-26T18:59:07.228Z,6.78
2019-04-26T19:02:11.472Z,6.85
2019-04-26T19:05:15.706Z,6.05
2019-04-26T19:08:20.816Z,5.83
2019-04-26T19:11:22.838Z,11.35
2019-04-26T19:14:25.550Z,8.25
2019-04-26T19:17:30.137Z,7.40
2019-04-26T19:20:32.844Z,8.45
2019-04-26T19:23:34.950Z,6.50
2019-04-26T19:26:37.393Z,6.10
2019-04-26T19:29:41.095Z,8.43
2019-04-26T19:32:44.190Z,16.00
2019-04-26T19:35:47.512Z,21.07
2019-04-26T19:38:51.303Z,29.63
2019-04-26T19:41:57.712Z,36.03
2019-04-26T19:45:13.663Z,28.55
2019-04-26T19:48:12.455Z,20.60
2019-04-26T19:51:19.039Z,9.38
2019-04-26T19:54:23.099Z,9.40
2019-04-26T19:57:23.779Z,5.70
2019-04-26T20:00:27.289Z,5.53
2019-04-26T20:03:29.595Z,4.42
2019-04-26T20:06:32.273Z,5.17
2019-04-26T20:09:36.197Z,3.30
2019-04-26T20:12:38.522Z,5.33
2019-04-26T20:15:42.336Z,5.65
2019-04-26T20:18:45.373Z,5.53
2019-04-26T20:21:49.673Z,6.05
2019-04-26T20:24:55.977Z,6.07
2019-04-26T20:27:59.822Z,3.58
2019-04-26T20:31:05.903Z,5.10
2019-04-26T20:34:09.638Z,3.35
2019-04-26T20:37:09.289Z,4.58
2019-04-26T20:40:20.116Z,4.87
2019-04-26T20:43:25.142Z,5.25
2019-04-26T20:46:24.714Z,7.17
2019-04-26T20:52:28.792Z,5.30
2019-04-26T20:55:34.460Z,6.15
2019-04-26T20:58:37.487Z,2.58
2019-04-26T21:01:43.600Z,3.70
2019-04-26T21:04:45.992Z,4.40
2019-04-26T21:07:49.930Z,7.33
2019-04-26T21:10:52.083Z,5.58
2019-04-26T21:13:54.188Z,7.20
2019-04-26T21:16:56.608Z,4.60
2019-04-26T21:19:58.929Z,4.65
2019-04-26T21:23:02.282Z,5.15
2019-04-26T21:26:06.966Z,6.35
2019-04-26T21:29:15.403Z,5.62
2019-04-26T21:32:20.448Z,3.95
2019-04-26T21:35:26.630Z,3.37
2019-04-26T21:38:29.684Z,4.12
2019-04-26T21:41:33.631Z,3.30
2019-04-26T21:44:37.773Z,3.62
2019-04-26T21:47:40.029Z,2.75
2019-04-26T21:50:42.209Z,3.77
2019-04-26T21:53:45.996Z,2.92
2019-04-26T21:56:49.870Z,5.20
2019-04-26T21:59:53.889Z,5.45
2019-04-26T22:02:56.123Z,6.40
2019-04-26T22:05:58.450Z,3.65
2019-04-26T22:09:02.783Z,3.08
2019-04-26T22:12:04.795Z,3.30
2019-04-26T22:15:08.937Z,4.35
2019-04-26T22:18:16.507Z,2.62
2019-04-26T22:21:16.437Z,3.35
2019-04-26T22:24:19.031Z,3.67
2019-04-26T22:27:21.757Z,3.45
2019-04-26T22:30:28.452Z,1.87
2019-04-26T22:33:30.826Z,4.17
2019-04-26T22:36:35.599Z,2.70
2019-04-26T22:39:39.990Z,2.72
2019-04-26T22:42:42.151Z,3.00
2019-04-26T22:45:46.922Z,4.37
2019-04-26T22:48:54.908Z,2.85
2019-04-26T22:51:52.969Z,2.67
2019-04-26T22:54:55.130Z,3.08
2019-04-26T22:57:57.141Z,5.95
2019-04-26T23:01:03.327Z,2.65
2019-04-26T23:04:03.516Z,3.37
2019-04-26T23:07:05.835Z,3.37
2019-04-26T23:10:08.707Z,3.85
2019-04-26T23:13:10.722Z,6.33
2019-04-26T23:16:14.330Z,3.05
2019-04-26T23:19:19.183Z,3.70
2019-04-26T23:22:20.320Z,4.08
2019-04-26T23:25:23.803Z,5.22
2019-04-26T23:28:27.704Z,4.58
2019-04-26T23:31:30.024Z,4.70
2019-04-26T23:34:33.686Z,3.15
2019-04-26T23:37:35.905Z,3.85
2019-04-26T23:40:38.031Z,2.83
2019-04-26T23:43:40.045Z,3.65
2019-04-26T23:46:43.285Z,2.45
2019-04-26T23:49:45.337Z,1.40
2019-04-26T23:52:49.228Z,3.25
2019-04-26T23:55:51.643Z,2.62
2019-04-26T23:58:53.656Z,1.65
